TimeEDT,TemperatureF,Dew PointF,Humidity,Sea Level PressureIn,VisibilityMPH,Wind Direction,Wind SpeedMPH,Gust SpeedMPH,PrecipitationIn,Events,Conditions,WindDirDegrees,DateUTC
12:53 AM,42.1,32.0,67,30.17,10.0,NNE,6.9,-,N/A,,Mostly Cloudy,20,2012-10-28 04:53:00
1:53 AM,41.0,30.9,67,30.14,10.0,North,9.2,-,N/A,,Partly Cloudy,10,2012-10-28 05:53:00
2:53 AM,42.1,32.0,67,30.13,10.0,North,10.4,-,N/A,,Overcast,10,2012-10-28 06:53:00
3:53 AM,42.1,32.0,67,30.12,10.0,North,9.2,-,N/A,,Overcast,10,2012-10-28 07:53:00
4:53 AM,41.0,33.1,73,30.12,10.0,North,10.4,-,N/A,,Overcast,360,2012-10-28 08:53:00
5:38 AM,41.0,33.8,76,30.10,10.0,North,8.1,-,N/A,,Overcast,360,2012-10-28 09:38:00
5:53 AM,41.0,33.1,73,30.12,10.0,North,10.4,-,N/A,,Overcast,350,2012-10-28 09:53:00
6:53 AM,39.9,32.0,73,30.13,10.0,North,8.1,-,N/A,,Overcast,360,2012-10-28 10:53:00
7:53 AM,41.0,30.9,67,30.14,10.0,North,11.5,19.6,N/A,,Overcast,360,2012-10-28 11:53:00
8:53 AM,41.0,30.9,67,30.13,10.0,North,16.1,20.7,N/A,,Overcast,10,2012-10-28 12:53:00
9:53 AM,42.1,30.9,65,30.14,10.0,North,15.0,-,N/A,,Clear,10,2012-10-28 13:53:00
10:53 AM,44.1,32.0,63,30.12,10.0,North,16.1,21.9,N/A,,Scattered Clouds,10,2012-10-28 14:53:00
11:14 AM,44.6,33.8,66,30.10,10.0,North,16.1,24.2,N/A,,Mostly Cloudy,10,2012-10-28 15:14:00
11:53 AM,44.1,34.0,68,30.12,10.0,NNE,15.0,21.9,N/A,,Overcast,20,2012-10-28 15:53:00
12:53 PM,46.0,35.1,66,30.10,10.0,North,12.7,19.6,N/A,,Overcast,10,2012-10-28 16:53:00
1:53 PM,46.9,34.0,61,30.08,10.0,North,11.5,19.6,N/A,,Overcast,10,2012-10-28 17:53:00
2:17 PM,46.4,33.8,62,30.05,10.0,NNE,15.0,21.9,N/A,,Overcast,30,2012-10-28 18:17:00
3:53 PM,48.0,34.0,58,30.07,10.0,NNE,16.1,21.9,N/A,,Overcast,30,2012-10-28 19:53:00
4:53 PM,46.9,30.9,54,30.07,10.0,NNE,17.3,24.2,N/A,,Overcast,20,2012-10-28 20:53:00
5:53 PM,46.0,28.9,51,30.07,10.0,North,15.0,24.2,N/A,,Overcast,10,2012-10-28 21:53:00
6:53 PM,45.0,28.9,53,30.08,10.0,North,10.4,21.9,N/A,,Overcast,10,2012-10-28 22:53:00
7:53 PM,44.1,30.0,58,30.09,10.0,North,17.3,23.0,N/A,,Mostly Cloudy,360,2012-10-28 23:53:00
8:53 PM,44.1,28.0,53,30.10,10.0,North,12.7,21.9,N/A,,Overcast,360,2012-10-29 00:53:00
9:53 PM,43.0,28.0,56,30.09,10.0,North,16.1,23.0,N/A,,Overcast,350,2012-10-29 01:53:00
10:53 PM,42.1,27.0,55,30.09,10.0,North,13.8,23.0,N/A,,Overcast,350,2012-10-29 02:53:00
11:53 PM,42.1,28.0,58,30.07,10.0,North,15.0,23.0,N/A,,Overcast,360,2012-10-29 03:53:00